sensor_id;sensor_type;location;lat;lon;timestamp;P1;durP1;ratioP1;P2;durP2;ratioP2
57105;SDS011;62662;56.788;23.942;2022-11-15T00:00:57;18.77;;;10.88;;
57105;SDS011;62662;56.788;23.942;2022-11-15T00:03:24;17.40;;;9.73;;
57105;SDS011;62662;56.788;23.942;2022-11-15T00:05:53;18.10;;;10.13;;
57105;SDS011;62662;56.788;23.942;2022-11-15T00:08:20;18.50;;;10.13;;
57105;SDS011;62662;56.788;23.942;2022-11-15T00:10:54;18.63;;;10.32;;
57105;SDS011;62662;56.788;23.942;2022-11-15T00:13:22;16.08;;;9.25;;
57105;SDS011;62662;56.788;23.942;2022-11-15T00:15:49;19.38;;;10.05;;
57105;SDS011;62662;56.788;23.942;2022-11-15T00:18:16;17.45;;;10.30;;
57105;SDS011;62662;56.788;23.942;2022-11-15T00:20:44;16.42;;;9.52;;
57105;SDS011;62662;56.788;23.942;2022-11-15T00:23:11;15.23;;;9.65;;
57105;SDS011;62662;56.788;23.942;2022-11-15T00:25:38;14.60;;;9.90;;
57105;SDS011;62662;56.788;23.942;2022-11-15T00:28:05;15.32;;;9.95;;
57105;SDS011;62662;56.788;23.942;2022-11-15T00:30:32;15.15;;;9.43;;
57105;SDS011;62662;56.788;23.942;2022-11-15T00:33:05;14.63;;;9.65;;
57105;SDS011;62662;56.788;23.942;2022-11-15T00:35:33;16.85;;;9.43;;
57105;SDS011;62662;56.788;23.942;2022-11-15T00:38:01;16.08;;;9.95;;
57105;SDS011;62662;56.788;23.942;2022-11-15T00:40:28;13.50;;;9.18;;
57105;SDS011;62662;56.788;23.942;2022-11-15T00:42:56;17.30;;;8.93;;
57105;SDS011;62662;56.788;23.942;2022-11-15T00:45:23;23.58;;;14.80;;
57105;SDS011;62662;56.788;23.942;2022-11-15T00:47:53;18.95;;;11.98;;
57105;SDS011;62662;56.788;23.942;2022-11-15T00:50:20;17.27;;;11.05;;
57105;SDS011;62662;56.788;23.942;2022-11-15T00:52:47;15.43;;;10.25;;
57105;SDS011;62662;56.788;23.942;2022-11-15T00:55:17;15.65;;;10.18;;
57105;SDS011;62662;56.788;23.942;2022-11-15T00:57:45;14.98;;;9.85;;
57105;SDS011;62662;56.788;23.942;2022-11-15T01:00:13;15.20;;;9.75;;
57105;SDS011;62662;56.788;23.942;2022-11-15T01:02:40;14.32;;;9.65;;
57105;SDS011;62662;56.788;23.942;2022-11-15T01:05:07;15.45;;;10.07;;
57105;SDS011;62662;56.788;23.942;2022-11-15T01:07:35;18.00;;;10.77;;
57105;SDS011;62662;56.788;23.942;2022-11-15T01:10:02;17.90;;;11.02;;
57105;SDS011;62662;56.788;23.942;2022-11-15T01:12:30;19.15;;;11.43;;
57105;SDS011;62662;56.788;23.942;2022-11-15T01:14:58;15.77;;;10.52;;
57105;SDS011;62662;56.788;23.942;2022-11-15T01:17:25;18.77;;;10.95;;
57105;SDS011;62662;56.788;23.942;2022-11-15T01:19:55;19.30;;;11.68;;
57105;SDS011;62662;56.788;23.942;2022-11-15T01:22:24;19.60;;;11.57;;
57105;SDS011;62662;56.788;23.942;2022-11-15T01:24:51;18.95;;;11.82;;
57105;SDS011;62662;56.788;23.942;2022-11-15T01:27:18;22.10;;;12.30;;
57105;SDS011;62662;56.788;23.942;2022-11-15T01:29:45;18.52;;;11.18;;
57105;SDS011;62662;56.788;23.942;2022-11-15T01:32:12;17.98;;;11.75;;
57105;SDS011;62662;56.788;23.942;2022-11-15T01:34:39;21.90;;;12.95;;
57105;SDS011;62662;56.788;23.942;2022-11-15T01:37:06;22.63;;;13.52;;
57105;SDS011;62662;56.788;23.942;2022-11-15T01:39:33;23.00;;;13.25;;
57105;SDS011;62662;56.788;23.942;2022-11-15T01:42:00;21.63;;;12.75;;
57105;SDS011;62662;56.788;23.942;2022-11-15T01:47:01;26.40;;;13.82;;
57105;SDS011;62662;56.788;23.942;2022-11-15T01:49:33;26.52;;;13.65;;
57105;SDS011;62662;56.788;23.942;2022-11-15T01:52:05;22.30;;;14.52;;
57105;SDS011;62662;56.788;23.942;2022-11-15T01:54:35;21.13;;;12.52;;
57105;SDS011;62662;56.788;23.942;2022-11-15T01:57:03;23.42;;;13.25;;
57105;SDS011;62662;56.788;23.942;2022-11-15T01:59:36;22.48;;;13.10;;
57105;SDS011;62662;56.788;23.942;2022-11-15T02:02:05;21.30;;;13.13;;
57105;SDS011;62662;56.788;23.942;2022-11-15T02:04:32;23.58;;;13.70;;
57105;SDS011;62662;56.788;23.942;2022-11-15T02:07:04;28.30;;;14.88;;
57105;SDS011;62662;56.788;23.942;2022-11-15T02:09:33;23.67;;;13.75;;
57105;SDS011;62662;56.788;23.942;2022-11-15T02:12:02;24.38;;;13.35;;
57105;SDS011;62662;56.788;23.942;2022-11-15T02:14:30;29.65;;;14.23;;
57105;SDS011;62662;56.788;23.942;2022-11-15T02:17:00;39.00;;;14.48;;
57105;SDS011;62662;56.788;23.942;2022-11-15T02:19:58;24.50;;;13.55;;
57105;SDS011;62662;56.788;23.942;2022-11-15T02:22:46;41.55;;;15.85;;
57105;SDS011;62662;56.788;23.942;2022-11-15T02:33:28;31.02;;;15.15;;
57105;SDS011;62662;56.788;23.942;2022-11-15T02:39:08;30.67;;;14.75;;
57105;SDS011;62662;56.788;23.942;2022-11-15T02:41:47;39.55;;;15.48;;
57105;SDS011;62662;56.788;23.942;2022-11-15T02:45:08;73.70;;;16.25;;
57105;SDS011;62662;56.788;23.942;2022-11-15T02:47:41;39.92;;;17.20;;
57105;SDS011;62662;56.788;23.942;2022-11-15T02:50:12;71.72;;;16.13;;
57105;SDS011;62662;56.788;23.942;2022-11-15T02:52:47;63.75;;;17.83;;
57105;SDS011;62662;56.788;23.942;2022-11-15T02:55:31;97.80;;;20.55;;
57105;SDS011;62662;56.788;23.942;2022-11-15T03:00:53;57.17;;;18.17;;
57105;SDS011;62662;56.788;23.942;2022-11-15T03:06:29;41.13;;;17.73;;
57105;SDS011;62662;56.788;23.942;2022-11-15T03:11:33;90.30;;;18.92;;
57105;SDS011;62662;56.788;23.942;2022-11-15T03:17:00;56.40;;;18.75;;
57105;SDS011;62662;56.788;23.942;2022-11-15T03:19:37;40.00;;;18.63;;
57105;SDS011;62662;56.788;23.942;2022-11-15T03:22:12;63.85;;;19.95;;
57105;SDS011;62662;56.788;23.942;2022-11-15T03:24:45;72.60;;;22.00;;
57105;SDS011;62662;56.788;23.942;2022-11-15T03:27:17;61.88;;;19.90;;
57105;SDS011;62662;56.788;23.942;2022-11-15T03:29:56;74.50;;;22.55;;
57105;SDS011;62662;56.788;23.942;2022-11-15T03:32:28;62.42;;;21.08;;
57105;SDS011;62662;56.788;23.942;2022-11-15T03:34:58;46.72;;;20.80;;
57105;SDS011;62662;56.788;23.942;2022-11-15T03:37:36;41.75;;;19.27;;
57105;SDS011;62662;56.788;23.942;2022-11-15T03:46:14;38.90;;;20.85;;
57105;SDS011;62662;56.788;23.942;2022-11-15T03:48:49;42.85;;;20.42;;
57105;SDS011;62662;56.788;23.942;2022-11-15T03:51:20;53.17;;;21.10;;
57105;SDS011;62662;56.788;23.942;2022-11-15T03:53:47;38.50;;;19.05;;
57105;SDS011;62662;56.788;23.942;2022-11-15T03:56:14;39.20;;;19.23;;
57105;SDS011;62662;56.788;23.942;2022-11-15T03:58:41;45.65;;;19.73;;
57105;SDS011;62662;56.788;23.942;2022-11-15T04:01:08;39.28;;;18.95;;
57105;SDS011;62662;56.788;23.942;2022-11-15T04:03:34;42.60;;;20.33;;
57105;SDS011;62662;56.788;23.942;2022-11-15T04:06:01;40.90;;;20.42;;
57105;SDS011;62662;56.788;23.942;2022-11-15T04:08:28;36.55;;;20.58;;
57105;SDS011;62662;56.788;23.942;2022-11-15T04:10:55;38.90;;;20.48;;
57105;SDS011;62662;56.788;23.942;2022-11-15T04:13:22;50.75;;;21.83;;
57105;SDS011;62662;56.788;23.942;2022-11-15T04:15:49;43.25;;;20.92;;
57105;SDS011;62662;56.788;23.942;2022-11-15T04:18:17;47.75;;;21.73;;
57105;SDS011;62662;56.788;23.942;2022-11-15T04:20:44;57.67;;;20.98;;
57105;SDS011;62662;56.788;23.942;2022-11-15T04:23:29;71.35;;;22.15;;
57105;SDS011;62662;56.788;23.942;2022-11-15T04:26:16;60.75;;;21.52;;
57105;SDS011;62662;56.788;23.942;2022-11-15T04:28:45;51.92;;;21.40;;
57105;SDS011;62662;56.788;23.942;2022-11-15T04:31:31;57.87;;;20.50;;
57105;SDS011;62662;56.788;23.942;2022-11-15T04:33:58;56.40;;;21.05;;
57105;SDS011;62662;56.788;23.942;2022-11-15T04:36:25;44.10;;;22.23;;
57105;SDS011;62662;56.788;23.942;2022-11-15T04:39:11;50.80;;;20.55;;
57105;SDS011;62662;56.788;23.942;2022-11-15T04:41:40;48.97;;;20.83;;
57105;SDS011;62662;56.788;23.942;2022-11-15T04:44:07;39.80;;;20.20;;
57105;SDS011;62662;56.788;23.942;2022-11-15T04:46:35;47.17;;;21.40;;
57105;SDS011;62662;56.788;23.942;2022-11-15T04:49:02;56.03;;;22.02;;
57105;SDS011;62662;56.788;23.942;2022-11-15T04:51:29;51.38;;;21.33;;
57105;SDS011;62662;56.788;23.942;2022-11-15T04:53:56;46.17;;;22.15;;
57105;SDS011;62662;56.788;23.942;2022-11-15T04:56:23;44.33;;;21.17;;
57105;SDS011;62662;56.788;23.942;2022-11-15T04:58:50;40.78;;;21.17;;
57105;SDS011;62662;56.788;23.942;2022-11-15T05:01:17;61.60;;;21.92;;
57105;SDS011;62662;56.788;23.942;2022-11-15T05:03:44;40.38;;;19.58;;
57105;SDS011;62662;56.788;23.942;2022-11-15T05:06:30;46.30;;;22.25;;
57105;SDS011;62662;56.788;23.942;2022-11-15T05:08:57;43.65;;;20.33;;
57105;SDS011;62662;56.788;23.942;2022-11-15T05:11:24;45.38;;;21.48;;
57105;SDS011;62662;56.788;23.942;2022-11-15T05:13:51;40.25;;;20.55;;
57105;SDS011;62662;56.788;23.942;2022-11-15T05:16:18;43.78;;;20.27;;
57105;SDS011;62662;56.788;23.942;2022-11-15T05:18:45;43.63;;;21.13;;
57105;SDS011;62662;56.788;23.942;2022-11-15T05:21:14;35.60;;;18.08;;
57105;SDS011;62662;56.788;23.942;2022-11-15T05:23:41;33.13;;;18.45;;
57105;SDS011;62662;56.788;23.942;2022-11-15T05:26:08;39.00;;;20.08;;
57105;SDS011;62662;56.788;23.942;2022-11-15T05:28:36;39.38;;;19.85;;
57105;SDS011;62662;56.788;23.942;2022-11-15T05:31:04;34.45;;;18.48;;
57105;SDS011;62662;56.788;23.942;2022-11-15T05:33:33;43.13;;;21.10;;
57105;SDS011;62662;56.788;23.942;2022-11-15T05:36:12;39.63;;;20.08;;
57105;SDS011;62662;56.788;23.942;2022-11-15T05:38:46;41.07;;;21.13;;
57105;SDS011;62662;56.788;23.942;2022-11-15T05:41:14;42.20;;;21.20;;
57105;SDS011;62662;56.788;23.942;2022-11-15T05:43:44;37.35;;;20.13;;
57105;SDS011;62662;56.788;23.942;2022-11-15T05:46:12;45.65;;;21.08;;
57105;SDS011;62662;56.788;23.942;2022-11-15T05:48:41;41.63;;;19.95;;
57105;SDS011;62662;56.788;23.942;2022-11-15T05:51:11;40.38;;;20.48;;
57105;SDS011;62662;56.788;23.942;2022-11-15T05:53:40;42.20;;;21.38;;
57105;SDS011;62662;56.788;23.942;2022-11-15T05:56:11;37.13;;;19.52;;
57105;SDS011;62662;56.788;23.942;2022-11-15T05:58:42;39.38;;;19.08;;
57105;SDS011;62662;56.788;23.942;2022-11-15T06:01:13;38.70;;;19.73;;
57105;SDS011;62662;56.788;23.942;2022-11-15T06:03:46;39.47;;;19.27;;
57105;SDS011;62662;56.788;23.942;2022-11-15T06:06:15;37.60;;;18.83;;
57105;SDS011;62662;56.788;23.942;2022-11-15T06:08:49;39.33;;;19.30;;
57105;SDS011;62662;56.788;23.942;2022-11-15T06:11:16;41.13;;;20.55;;
57105;SDS011;62662;56.788;23.942;2022-11-15T06:13:48;35.25;;;18.45;;
57105;SDS011;62662;56.788;23.942;2022-11-15T06:16:15;35.90;;;19.55;;
57105;SDS011;62662;56.788;23.942;2022-11-15T06:18:42;42.60;;;20.60;;
57105;SDS011;62662;56.788;23.942;2022-11-15T06:21:20;36.38;;;20.00;;
57105;SDS011;62662;56.788;23.942;2022-11-15T06:23:50;40.42;;;21.33;;
57105;SDS011;62662;56.788;23.942;2022-11-15T06:26:23;45.38;;;19.67;;
57105;SDS011;62662;56.788;23.942;2022-11-15T06:28:57;32.67;;;17.92;;
57105;SDS011;62662;56.788;23.942;2022-11-15T06:34:23;41.78;;;21.17;;
57105;SDS011;62662;56.788;23.942;2022-11-15T06:36:53;42.85;;;19.80;;
57105;SDS011;62662;56.788;23.942;2022-11-15T06:39:21;44.22;;;21.10;;
57105;SDS011;62662;56.788;23.942;2022-11-15T06:41:50;37.25;;;18.75;;
57105;SDS011;62662;56.788;23.942;2022-11-15T06:44:21;40.22;;;20.17;;
57105;SDS011;62662;56.788;23.942;2022-11-15T06:47:02;36.63;;;19.05;;
57105;SDS011;62662;56.788;23.942;2022-11-15T07:06:09;34.15;;;19.38;;
57105;SDS011;62662;56.788;23.942;2022-11-15T07:13:16;34.63;;;18.30;;
57105;SDS011;62662;56.788;23.942;2022-11-15T07:16:04;30.10;;;16.60;;
57105;SDS011;62662;56.788;23.942;2022-11-15T07:18:38;35.15;;;18.55;;
57105;SDS011;62662;56.788;23.942;2022-11-15T07:21:23;32.20;;;16.48;;
57105;SDS011;62662;56.788;23.942;2022-11-15T07:23:58;36.33;;;18.73;;
57105;SDS011;62662;56.788;23.942;2022-11-15T07:26:43;28.42;;;16.13;;
57105;SDS011;62662;56.788;23.942;2022-11-15T07:29:26;30.15;;;15.98;;
57105;SDS011;62662;56.788;23.942;2022-11-15T07:32:13;29.95;;;17.63;;
57105;SDS011;62662;56.788;23.942;2022-11-15T07:34:41;32.50;;;16.50;;
57105;SDS011;62662;56.788;23.942;2022-11-15T07:37:26;30.75;;;16.98;;
57105;SDS011;62662;56.788;23.942;2022-11-15T07:40:18;28.67;;;17.35;;
57105;SDS011;62662;56.788;23.942;2022-11-15T07:46:15;28.50;;;15.52;;
57105;SDS011;62662;56.788;23.942;2022-11-15T07:49:41;29.85;;;16.52;;
57105;SDS011;62662;56.788;23.942;2022-11-15T07:52:18;28.85;;;15.15;;
57105;SDS011;62662;56.788;23.942;2022-11-15T07:55:06;32.97;;;17.83;;
57105;SDS011;62662;56.788;23.942;2022-11-15T07:57:40;27.67;;;16.75;;
57105;SDS011;62662;56.788;23.942;2022-11-15T08:00:31;29.08;;;16.55;;
57105;SDS011;62662;56.788;23.942;2022-11-15T08:03:17;29.30;;;16.08;;
57105;SDS011;62662;56.788;23.942;2022-11-15T08:05:57;25.42;;;15.95;;
57105;SDS011;62662;56.788;23.942;2022-11-15T08:08:29;23.00;;;15.15;;
57105;SDS011;62662;56.788;23.942;2022-11-15T08:15:34;28.25;;;16.17;;
57105;SDS011;62662;56.788;23.942;2022-11-15T08:22:21;22.25;;;14.18;;
57105;SDS011;62662;56.788;23.942;2022-11-15T08:28:42;20.92;;;13.80;;
57105;SDS011;62662;56.788;23.942;2022-11-15T08:32:13;22.02;;;13.85;;
57105;SDS011;62662;56.788;23.942;2022-11-15T08:34:47;22.48;;;14.15;;
57105;SDS011;62662;56.788;23.942;2022-11-15T08:37:17;23.45;;;14.02;;
57105;SDS011;62662;56.788;23.942;2022-11-15T08:39:45;22.65;;;13.07;;
57105;SDS011;62662;56.788;23.942;2022-11-15T08:42:12;25.33;;;14.32;;
57105;SDS011;62662;56.788;23.942;2022-11-15T08:44:45;23.48;;;13.70;;
57105;SDS011;62662;56.788;23.942;2022-11-15T08:47:14;19.58;;;13.32;;
57105;SDS011;62662;56.788;23.942;2022-11-15T08:49:41;22.60;;;13.68;;
57105;SDS011;62662;56.788;23.942;2022-11-15T08:56:13;18.80;;;12.68;;
57105;SDS011;62662;56.788;23.942;2022-11-15T08:59:36;20.38;;;12.98;;
57105;SDS011;62662;56.788;23.942;2022-11-15T09:09:23;19.95;;;11.65;;
57105;SDS011;62662;56.788;23.942;2022-11-15T09:17:11;18.33;;;12.25;;
57105;SDS011;62662;56.788;23.942;2022-11-15T09:21:07;17.40;;;11.63;;
57105;SDS011;62662;56.788;23.942;2022-11-15T09:24:03;19.33;;;11.50;;
57105;SDS011;62662;56.788;23.942;2022-11-15T09:34:34;18.00;;;11.68;;
57105;SDS011;62662;56.788;23.942;2022-11-15T09:37:10;18.15;;;11.02;;
57105;SDS011;62662;56.788;23.942;2022-11-15T09:39:45;18.70;;;11.73;;
57105;SDS011;62662;56.788;23.942;2022-11-15T09:45:13;15.40;;;10.88;;
57105;SDS011;62662;56.788;23.942;2022-11-15T09:50:51;13.98;;;9.98;;
57105;SDS011;62662;56.788;23.942;2022-11-15T09:57:20;16.85;;;10.10;;
57105;SDS011;62662;56.788;23.942;2022-11-15T10:05:23;16.88;;;10.50;;
57105;SDS011;62662;56.788;23.942;2022-11-15T10:09:47;14.13;;;10.32;;
57105;SDS011;62662;56.788;23.942;2022-11-15T10:20:21;14.05;;;8.50;;
57105;SDS011;62662;56.788;23.942;2022-11-15T10:23:41;16.98;;;9.77;;
57105;SDS011;62662;56.788;23.942;2022-11-15T10:27:09;15.57;;;9.00;;
57105;SDS011;62662;56.788;23.942;2022-11-15T10:30:34;14.35;;;9.48;;
57105;SDS011;62662;56.788;23.942;2022-11-15T10:33:31;12.38;;;8.35;;
57105;SDS011;62662;56.788;23.942;2022-11-15T10:44:11;12.93;;;8.52;;
57105;SDS011;62662;56.788;23.942;2022-11-15T10:50:48;10.95;;;6.65;;
57105;SDS011;62662;56.788;23.942;2022-11-15T10:53:31;9.68;;;6.88;;
57105;SDS011;62662;56.788;23.942;2022-11-15T10:57:05;8.25;;;6.43;;
57105;SDS011;62662;56.788;23.942;2022-11-15T11:04:08;7.90;;;6.15;;
57105;SDS011;62662;56.788;23.942;2022-11-15T11:09:45;6.10;;;4.93;;
57105;SDS011;62662;56.788;23.942;2022-11-15T11:19:08;9.10;;;5.45;;
57105;SDS011;62662;56.788;23.942;2022-11-15T11:35:39;6.60;;;4.18;;
57105;SDS011;62662;56.788;23.942;2022-11-15T11:41:38;4.85;;;4.25;;
57105;SDS011;62662;56.788;23.942;2022-11-15T11:50:41;4.75;;;3.70;;
57105;SDS011;62662;56.788;23.942;2022-11-15T11:56:59;7.05;;;3.53;;
57105;SDS011;62662;56.788;23.942;2022-11-15T12:00:33;5.30;;;2.88;;
57105;SDS011;62662;56.788;23.942;2022-11-15T12:07:10;2.22;;;1.90;;
57105;SDS011;62662;56.788;23.942;2022-11-15T12:10:23;2.90;;;1.63;;
57105;SDS011;62662;56.788;23.942;2022-11-15T12:19:47;2.97;;;1.27;;
57105;SDS011;62662;56.788;23.942;2022-11-15T12:29:43;3.33;;;1.85;;
57105;SDS011;62662;56.788;23.942;2022-11-15T12:32:35;1.88;;;1.67;;
57105;SDS011;62662;56.788;23.942;2022-11-15T12:35:37;4.15;;;1.90;;
57105;SDS011;62662;56.788;23.942;2022-11-15T12:38:12;7.97;;;2.10;;
57105;SDS011;62662;56.788;23.942;2022-11-15T12:41:17;5.00;;;2.53;;
57105;SDS011;62662;56.788;23.942;2022-11-15T12:43:48;3.40;;;2.30;;
57105;SDS011;62662;56.788;23.942;2022-11-15T12:59:56;4.97;;;2.35;;
57105;SDS011;62662;56.788;23.942;2022-11-15T13:02:32;5.03;;;2.35;;
57105;SDS011;62662;56.788;23.942;2022-11-15T13:13:08;1.80;;;1.52;;
57105;SDS011;62662;56.788;23.942;2022-11-15T13:15:37;10.00;;;2.33;;
57105;SDS011;62662;56.788;23.942;2022-11-15T13:21:27;3.15;;;1.90;;
57105;SDS011;62662;56.788;23.942;2022-11-15T13:24:12;3.38;;;1.85;;
57105;SDS011;62662;56.788;23.942;2022-11-15T13:26:43;2.25;;;1.63;;
57105;SDS011;62662;56.788;23.942;2022-11-15T13:29:15;2.33;;;1.70;;
57105;SDS011;62662;56.788;23.942;2022-11-15T13:31:47;2.88;;;2.08;;
57105;SDS011;62662;56.788;23.942;2022-11-15T13:34:17;2.50;;;2.10;;
57105;SDS011;62662;56.788;23.942;2022-11-15T13:39:48;4.63;;;2.30;;
57105;SDS011;62662;56.788;23.942;2022-11-15T13:42:19;4.15;;;2.50;;
57105;SDS011;62662;56.788;23.942;2022-11-15T13:44:57;3.70;;;2.60;;
57105;SDS011;62662;56.788;23.942;2022-11-15T13:47:27;4.05;;;2.45;;
57105;SDS011;62662;56.788;23.942;2022-11-15T13:49:59;3.95;;;2.30;;
57105;SDS011;62662;56.788;23.942;2022-11-15T13:52:37;5.18;;;1.95;;
57105;SDS011;62662;56.788;23.942;2022-11-15T13:55:12;2.80;;;1.98;;
57105;SDS011;62662;56.788;23.942;2022-11-15T13:57:47;3.17;;;1.77;;
57105;SDS011;62662;56.788;23.942;2022-11-15T14:00:25;1.85;;;1.65;;
57105;SDS011;62662;56.788;23.942;2022-11-15T14:02:57;2.67;;;1.85;;
57105;SDS011;62662;56.788;23.942;2022-11-15T14:08:39;1.42;;;1.20;;
57105;SDS011;62662;56.788;23.942;2022-11-15T14:16:47;1.80;;;1.70;;
57105;SDS011;62662;56.788;23.942;2022-11-15T14:24:38;6.05;;;1.98;;
57105;SDS011;62662;56.788;23.942;2022-11-15T14:29:45;3.60;;;2.30;;
57105;SDS011;62662;56.788;23.942;2022-11-15T14:32:14;3.45;;;1.52;;
57105;SDS011;62662;56.788;23.942;2022-11-15T14:34:46;3.50;;;1.50;;
57105;SDS011;62662;56.788;23.942;2022-11-15T14:37:19;1.88;;;1.40;;
57105;SDS011;62662;56.788;23.942;2022-11-15T14:39:48;2.60;;;1.52;;
57105;SDS011;62662;56.788;23.942;2022-11-15T14:42:17;2.55;;;1.40;;
57105;SDS011;62662;56.788;23.942;2022-11-15T14:44:45;3.65;;;1.67;;
57105;SDS011;62662;56.788;23.942;2022-11-15T14:47:13;2.03;;;1.83;;
57105;SDS011;62662;56.788;23.942;2022-11-15T14:49:40;4.75;;;2.00;;
57105;SDS011;62662;56.788;23.942;2022-11-15T14:54:47;3.08;;;1.88;;
57105;SDS011;62662;56.788;23.942;2022-11-15T14:57:15;2.42;;;1.75;;
57105;SDS011;62662;56.788;23.942;2022-11-15T14:59:42;2.92;;;1.88;;
57105;SDS011;62662;56.788;23.942;2022-11-15T15:02:30;2.10;;;1.90;;
57105;SDS011;62662;56.788;23.942;2022-11-15T15:04:57;2.58;;;1.98;;
57105;SDS011;62662;56.788;23.942;2022-11-15T15:07:27;2.97;;;2.05;;
57105;SDS011;62662;56.788;23.942;2022-11-15T15:09:54;6.40;;;2.30;;
57105;SDS011;62662;56.788;23.942;2022-11-15T15:12:41;2.40;;;1.80;;
57105;SDS011;62662;56.788;23.942;2022-11-15T15:15:13;4.13;;;1.80;;
57105;SDS011;62662;56.788;23.942;2022-11-15T15:17:43;2.38;;;2.03;;
57105;SDS011;62662;56.788;23.942;2022-11-15T15:20:10;2.95;;;1.90;;
57105;SDS011;62662;56.788;23.942;2022-11-15T15:22:38;4.75;;;2.30;;
57105;SDS011;62662;56.788;23.942;2022-11-15T15:28:02;3.22;;;2.00;;
57105;SDS011;62662;56.788;23.942;2022-11-15T15:30:29;3.40;;;1.85;;
57105;SDS011;62662;56.788;23.942;2022-11-15T15:32:57;4.75;;;2.45;;
57105;SDS011;62662;56.788;23.942;2022-11-15T15:35:26;2.83;;;2.20;;
57105;SDS011;62662;56.788;23.942;2022-11-15T15:37:58;2.75;;;1.70;;
57105;SDS011;62662;56.788;23.942;2022-11-15T15:40:29;1.90;;;1.67;;
57105;SDS011;62662;56.788;23.942;2022-11-15T15:42:58;3.97;;;2.15;;
57105;SDS011;62662;56.788;23.942;2022-11-15T15:45:26;3.15;;;1.45;;
57105;SDS011;62662;56.788;23.942;2022-11-15T15:47:55;4.28;;;2.15;;
57105;SDS011;62662;56.788;23.942;2022-11-15T15:50:26;2.20;;;1.77;;
57105;SDS011;62662;56.788;23.942;2022-11-15T15:53:01;3.38;;;2.65;;
57105;SDS011;62662;56.788;23.942;2022-11-15T15:55:29;3.92;;;2.70;;
57105;SDS011;62662;56.788;23.942;2022-11-15T15:57:58;6.00;;;3.30;;
57105;SDS011;62662;56.788;23.942;2022-11-15T16:00:25;5.60;;;2.85;;
57105;SDS011;62662;56.788;23.942;2022-11-15T16:02:52;2.88;;;2.50;;
57105;SDS011;62662;56.788;23.942;2022-11-15T16:05:20;7.65;;;2.63;;
57105;SDS011;62662;56.788;23.942;2022-11-15T16:07:48;3.65;;;2.67;;
57105;SDS011;62662;56.788;23.942;2022-11-15T16:12:47;3.40;;;2.38;;
57105;SDS011;62662;56.788;23.942;2022-11-15T16:15:15;3.05;;;2.47;;
57105;SDS011;62662;56.788;23.942;2022-11-15T16:17:47;6.85;;;3.13;;
57105;SDS011;62662;56.788;23.942;2022-11-15T16:22:55;5.03;;;2.97;;
57105;SDS011;62662;56.788;23.942;2022-11-15T16:25:23;3.50;;;2.40;;
57105;SDS011;62662;56.788;23.942;2022-11-15T16:27:51;4.97;;;2.25;;
57105;SDS011;62662;56.788;23.942;2022-11-15T16:30:21;4.15;;;2.40;;
57105;SDS011;62662;56.788;23.942;2022-11-15T16:32:50;3.45;;;2.47;;
57105;SDS011;62662;56.788;23.942;2022-11-15T16:35:17;3.20;;;1.92;;
57105;SDS011;62662;56.788;23.942;2022-11-15T16:37:44;3.80;;;2.20;;
57105;SDS011;62662;56.788;23.942;2022-11-15T16:40:28;3.75;;;3.00;;
57105;SDS011;62662;56.788;23.942;2022-11-15T16:43:01;2.95;;;2.65;;
57105;SDS011;62662;56.788;23.942;2022-11-15T16:45:30;2.60;;;2.40;;
57105;SDS011;62662;56.788;23.942;2022-11-15T16:47:59;2.38;;;1.90;;
57105;SDS011;62662;56.788;23.942;2022-11-15T16:50:28;3.70;;;1.80;;
57105;SDS011;62662;56.788;23.942;2022-11-15T16:52:57;2.55;;;2.35;;
57105;SDS011;62662;56.788;23.942;2022-11-15T16:55:26;2.78;;;1.73;;
57105;SDS011;62662;56.788;23.942;2022-11-15T16:57:57;2.60;;;2.40;;
57105;SDS011;62662;56.788;23.942;2022-11-15T17:00:24;2.67;;;1.90;;
57105;SDS011;62662;56.788;23.942;2022-11-15T17:02:52;2.90;;;2.42;;
57105;SDS011;62662;56.788;23.942;2022-11-15T17:05:21;2.38;;;2.00;;
57105;SDS011;62662;56.788;23.942;2022-11-15T17:07:49;3.17;;;2.08;;
57105;SDS011;62662;56.788;23.942;2022-11-15T17:10:21;2.65;;;2.22;;
57105;SDS011;62662;56.788;23.942;2022-11-15T17:12:49;2.97;;;2.67;;
57105;SDS011;62662;56.788;23.942;2022-11-15T17:15:18;4.63;;;2.95;;
57105;SDS011;62662;56.788;23.942;2022-11-15T17:17:54;2.80;;;2.55;;
57105;SDS011;62662;56.788;23.942;2022-11-15T17:20:23;2.70;;;2.33;;
57105;SDS011;62662;56.788;23.942;2022-11-15T17:22:50;4.07;;;2.75;;
57105;SDS011;62662;56.788;23.942;2022-11-15T17:25:18;2.83;;;2.63;;
57105;SDS011;62662;56.788;23.942;2022-11-15T17:27:46;2.55;;;2.17;;
57105;SDS011;62662;56.788;23.942;2022-11-15T17:30:13;2.25;;;2.05;;
57105;SDS011;62662;56.788;23.942;2022-11-15T17:32:42;2.63;;;2.25;;
57105;SDS011;62662;56.788;23.942;2022-11-15T17:35:10;2.55;;;2.05;;
57105;SDS011;62662;56.788;23.942;2022-11-15T17:37:41;2.60;;;2.40;;
57105;SDS011;62662;56.788;23.942;2022-11-15T17:40:08;2.30;;;2.08;;
57105;SDS011;62662;56.788;23.942;2022-11-15T17:42:39;4.10;;;2.92;;
57105;SDS011;62662;56.788;23.942;2022-11-15T17:45:07;2.60;;;2.40;;
57105;SDS011;62662;56.788;23.942;2022-11-15T17:47:36;2.25;;;2.05;;
57105;SDS011;62662;56.788;23.942;2022-11-15T17:50:03;2.30;;;2.10;;
57105;SDS011;62662;56.788;23.942;2022-11-15T17:52:31;2.42;;;2.22;;
57105;SDS011;62662;56.788;23.942;2022-11-15T17:54:58;2.42;;;2.20;;
57105;SDS011;62662;56.788;23.942;2022-11-15T17:57:25;2.40;;;2.20;;
57105;SDS011;62662;56.788;23.942;2022-11-15T17:59:53;2.85;;;2.60;;
57105;SDS011;62662;56.788;23.942;2022-11-15T18:02:20;5.82;;;2.65;;
57105;SDS011;62662;56.788;23.942;2022-11-15T18:04:47;3.10;;;2.80;;
57105;SDS011;62662;56.788;23.942;2022-11-15T18:07:14;5.07;;;3.00;;
57105;SDS011;62662;56.788;23.942;2022-11-15T18:09:42;3.25;;;2.78;;
57105;SDS011;62662;56.788;23.942;2022-11-15T18:12:10;4.05;;;2.70;;
57105;SDS011;62662;56.788;23.942;2022-11-15T18:14:37;5.00;;;3.17;;
57105;SDS011;62662;56.788;23.942;2022-11-15T18:17:05;3.65;;;3.30;;
57105;SDS011;62662;56.788;23.942;2022-11-15T18:19:36;3.70;;;3.20;;
57105;SDS011;62662;56.788;23.942;2022-11-15T18:22:03;4.10;;;3.38;;
57105;SDS011;62662;56.788;23.942;2022-11-15T18:24:35;3.55;;;3.25;;
57105;SDS011;62662;56.788;23.942;2022-11-15T18:27:06;3.60;;;3.30;;
57105;SDS011;62662;56.788;23.942;2022-11-15T18:29:34;4.40;;;3.75;;
57105;SDS011;62662;56.788;23.942;2022-11-15T18:32:04;5.20;;;3.83;;
57105;SDS011;62662;56.788;23.942;2022-11-15T18:34:37;4.15;;;3.65;;
57105;SDS011;62662;56.788;23.942;2022-11-15T18:37:04;4.25;;;3.38;;
57105;SDS011;62662;56.788;23.942;2022-11-15T18:39:32;4.97;;;3.88;;
57105;SDS011;62662;56.788;23.942;2022-11-15T18:41:59;6.32;;;3.90;;
57105;SDS011;62662;56.788;23.942;2022-11-15T18:44:29;6.38;;;4.00;;
57105;SDS011;62662;56.788;23.942;2022-11-15T18:46:56;5.20;;;4.38;;
57105;SDS011;62662;56.788;23.942;2022-11-15T18:49:24;5.43;;;4.18;;
57105;SDS011;62662;56.788;23.942;2022-11-15T18:51:53;7.53;;;4.97;;
57105;SDS011;62662;56.788;23.942;2022-11-15T18:54:22;6.00;;;4.68;;
57105;SDS011;62662;56.788;23.942;2022-11-15T18:56:55;6.45;;;4.07;;
57105;SDS011;62662;56.788;23.942;2022-11-15T18:59:23;4.82;;;4.03;;
57105;SDS011;62662;56.788;23.942;2022-11-15T19:01:53;5.72;;;4.22;;
57105;SDS011;62662;56.788;23.942;2022-11-15T19:04:21;4.32;;;3.80;;